Time;durP1;ratioP1;P1;durP2;ratioP2;P2;SDS_P1;SDS_P2;PMS_P1;PMS_P2;Temp;Humidity;BMP_temperature;BMP_pressure;BME280_temperature;BME280_humidity;BME280_pressure;Samples;Min_cycle;Max_cycle;Signal;HPM_P1;HPM_P2
2023/08/23 00:01:51;;;;;;;22.95;13.95;;;;;;;24.01;100.00;92938.47;5044923;28;20037;-80
2023/08/23 00:04:19;;;;;;;21.20;14.65;;;;;;;23.97;100.00;92932.28;5027733;28;20041;-79
2023/08/23 00:06:44;;;;;;;20.67;14.80;;;;;;;23.96;100.00;92938.75;5028199;28;20037;-79
2023/08/23 00:09:10;;;;;;;20.05;14.40;;;;;;;23.94;100.00;92936.47;5027972;28;20094;-80
2023/08/23 00:11:36;;;;;;;20.90;14.63;;;;;;;23.90;100.00;92936.41;5043968;28;20072;-80
2023/08/23 00:14:01;;;;;;;27.70;14.45;;;;;;;23.84;100.00;92935.16;5044430;28;20100;-80
2023/08/23 00:16:27;;;;;;;23.23;14.93;;;;;;;23.85;100.00;92931.34;5045317;28;20045;-80
2023/08/23 00:18:52;;;;;;;26.23;15.48;;;;;;;23.82;100.00;92921.41;5045127;28;20049;-80
2023/08/23 00:21:18;;;;;;;23.92;14.75;;;;;;;23.77;100.00;92919.00;5045772;28;20467;-80
2023/08/23 00:23:43;;;;;;;21.27;14.05;;;;;;;23.77;100.00;92923.59;5044319;28;20049;-80
2023/08/23 00:26:11;;;;;;;20.88;13.98;;;;;;;23.76;100.00;92917.47;5027223;28;20045;-80
2023/08/23 00:28:40;;;;;;;25.50;14.55;;;;;;;23.76;100.00;92922.06;5027168;28;20060;-80
2023/08/23 00:31:07;;;;;;;21.50;14.23;;;;;;;23.71;100.00;92920.44;5026731;28;20077;-80
2023/08/23 00:33:33;;;;;;;23.55;15.23;;;;;;;23.71;100.00;92912.41;5027127;28;20029;-80
2023/08/23 00:35:59;;;;;;;24.33;15.55;;;;;;;23.69;100.00;92912.75;5026502;28;20030;-79
2023/08/23 00:38:24;;;;;;;23.10;15.35;;;;;;;23.66;100.00;92912.69;5045576;28;20060;-79
2023/08/23 00:40:50;;;;;;;22.60;14.13;;;;;;;23.61;100.00;92904.97;5026698;28;20033;-80
2023/08/23 00:43:16;;;;;;;23.50;14.85;;;;;;;23.61;100.00;92911.09;5026525;28;20041;-80
2023/08/23 00:45:43;;;;;;;22.45;14.38;;;;;;;23.60;100.00;92908.78;5011408;28;20080;-80
2023/08/23 00:48:11;;;;;;;23.70;14.45;;;;;;;23.58;100.00;92913.72;5045994;28;20035;-80
2023/08/23 00:50:39;;;;;;;19.85;13.98;;;;;;;23.52;100.00;92905.22;5028033;28;20037;-80
2023/08/23 00:53:07;;;;;;;23.95;14.27;;;;;;;23.49;100.00;92904.03;5026890;28;20040;-79
2023/08/23 00:55:33;;;;;;;22.05;15.25;;;;;;;23.51;100.00;92910.91;5044870;28;20037;-80
2023/08/23 00:57:59;;;;;;;22.33;15.00;;;;;;;23.49;100.00;92908.63;5044884;28;20096;-79
2023/08/23 01:00:26;;;;;;;22.55;15.13;;;;;;;23.46;100.00;92909.31;5046105;28;20029;-80
2023/08/23 01:02:52;;;;;;;22.20;14.65;;;;;;;23.47;100.00;92911.63;5027395;28;20037;-80
2023/08/23 01:05:19;;;;;;;24.70;15.07;;;;;;;23.47;100.00;92913.53;5011104;28;20042;-80
2023/08/23 01:08:02;;;;;;;22.83;14.27;;;;;;;23.39;100.00;92909.97;5027024;28;20069;-80
2023/08/23 01:10:47;;;;;;;24.17;15.00;;;;;;;23.40;100.00;92916.09;5045099;28;20482;-79
2023/08/23 01:13:21;;;;;;;20.45;14.75;;;;;;;23.34;100.00;92910.25;5026169;28;20423;-79
2023/08/23 01:15:48;;;;;;;20.90;14.52;;;;;;;23.30;100.00;92920.09;5044119;28;20029;-80
2023/08/23 01:18:14;;;;;;;23.33;14.98;;;;;;;23.29;100.00;92918.56;5025495;28;20386;-79
2023/08/23 01:20:41;;;;;;;26.42;14.80;;;;;;;23.27;100.00;92920.81;5026488;28;20034;-79
2023/08/23 01:23:17;;;;;;;25.05;15.18;;;;;;;23.22;100.00;92918.44;5025987;28;20038;-79
2023/08/23 01:25:44;;;;;;;22.83;15.15;;;;;;;23.21;100.00;92930.25;5042397;28;20044;-79
2023/08/23 01:28:10;;;;;;;22.73;15.30;;;;;;;23.20;100.00;92920.69;5026366;28;20029;-80
2023/08/23 01:30:38;;;;;;;23.48;16.17;;;;;;;23.16;100.00;92923.28;5044701;28;20044;-81
2023/08/23 01:33:12;;;;;;;24.65;14.68;;;;;;;23.15;100.00;92921.75;5043579;28;20029;-80
2023/08/23 01:35:50;;;;;;;20.67;14.75;;;;;;;23.15;100.00;92921.00;5042995;28;20503;-79
2023/08/23 01:38:17;;;;;;;24.33;15.05;;;;;;;23.13;100.00;92917.91;5043267;28;20503;-80
2023/08/23 01:40:43;;;;;;;20.90;14.75;;;;;;;23.13;100.00;92920.56;5026496;28;20048;-80
2023/08/23 01:43:09;;;;;;;25.17;15.57;;;;;;;23.04;100.00;92905.53;5043643;28;20044;-80
2023/08/23 01:45:34;;;;;;;21.85;14.98;;;;;;;23.06;100.00;92911.31;5043064;28;20045;-80
2023/08/23 01:48:00;;;;;;;22.98;15.07;;;;;;;23.05;100.00;92912.41;5026836;28;20033;-79
2023/08/23 01:50:25;;;;;;;21.38;14.05;;;;;;;23.04;100.00;92910.88;5025850;28;20052;-80
2023/08/23 01:52:51;;;;;;;25.58;14.88;;;;;;;23.05;100.00;92908.97;5042699;28;20033;-80
2023/08/23 01:55:17;;;;;;;21.83;14.88;;;;;;;22.94;100.00;92890.06;5043081;28;20030;-80
2023/08/23 01:57:44;;;;;;;26.25;15.35;;;;;;;23.00;100.00;92896.69;5026174;28;20037;-79
2023/08/23 02:00:10;;;;;;;19.58;14.80;;;;;;;23.03;100.00;92903.22;5026365;28;20029;-80
2023/08/23 02:02:45;;;;;;;24.05;15.00;;;;;;;23.02;100.00;92907.03;5042050;28;20033;-80
2023/08/23 02:05:11;;;;;;;21.73;15.55;;;;;;;22.98;100.00;92901.59;5043319;28;20041;-80
2023/08/23 02:07:36;;;;;;;29.77;15.05;;;;;;;22.99;100.00;92897.84;5043351;28;20087;-79
2023/08/23 02:10:02;;;;;;;22.67;14.95;;;;;;;22.96;100.00;92897.72;5026447;28;20056;-80
2023/08/23 02:12:28;;;;;;;24.63;15.23;;;;;;;23.01;100.00;92900.94;5025385;28;20124;-80
2023/08/23 02:14:53;;;;;;;30.48;16.25;;;;;;;22.99;100.00;92892.50;5025643;28;20105;-80
2023/08/23 02:17:19;;;;;;;21.27;15.48;;;;;;;23.02;100.00;92893.69;5042883;28;20053;-79
2023/08/23 02:19:45;;;;;;;25.27;15.32;;;;;;;22.99;100.00;92897.84;5024091;28;20044;-80
2023/08/23 02:22:10;;;;;;;25.08;15.10;;;;;;;22.98;100.00;92900.81;5023875;28;20037;-79
2023/08/23 02:24:36;;;;;;;28.15;16.60;;;;;;;22.97;100.00;92900.06;5042476;28;20042;-79
2023/08/23 02:27:01;;;;;;;23.58;16.00;;;;;;;22.90;100.00;92888.44;5042693;28;20033;-79
2023/08/23 02:29:27;;;;;;;26.90;15.25;;;;;;;22.95;100.00;92902.31;5042010;28;20034;-80
2023/08/23 02:31:52;;;;;;;24.65;15.50;;;;;;;22.88;100.00;92891.50;5023865;28;20124;-80
2023/08/23 02:34:18;;;;;;;25.77;15.23;;;;;;;22.92;100.00;92897.69;5024513;28;20062;-80
2023/08/23 02:36:44;;;;;;;24.17;15.18;;;;;;;22.88;100.00;92899.50;5041572;28;20068;-80
2023/08/23 02:39:09;;;;;;;25.77;15.50;;;;;;;22.84;100.00;92898.66;5024403;28;20039;-80
2023/08/23 02:41:35;;;;;;;24.58;15.45;;;;;;;22.82;100.00;92900.91;5024723;28;20057;-79
2023/08/23 02:44:00;;;;;;;24.65;14.98;;;;;;;22.77;100.00;92891.28;5024779;28;20517;-80
2023/08/23 02:46:26;;;;;;;26.08;16.17;;;;;;;22.75;100.00;92896.19;5042705;28;20038;-80
2023/08/23 02:48:51;;;;;;;25.85;16.88;;;;;;;22.71;100.00;92892.69;5043676;28;20061;-80
2023/08/23 02:51:17;;;;;;;25.45;15.98;;;;;;;22.69;100.00;92896.84;5025699;28;20039;-80
2023/08/23 02:53:43;;;;;;;20.02;14.85;;;;;;;22.69;100.00;92894.16;5042986;28;20037;-80
2023/08/23 02:56:08;;;;;;;23.67;15.45;;;;;;;22.68;100.00;92897.97;5041380;28;20530;-79
2023/08/23 02:58:34;;;;;;;22.90;15.70;;;;;;;22.64;100.00;92890.66;5024777;28;20050;-80
2023/08/23 03:01:00;;;;;;;24.60;15.52;;;;;;;22.62;100.00;92892.91;5026098;28;20439;-80
2023/08/23 03:03:26;;;;;;;23.20;15.02;;;;;;;22.60;100.00;92894.38;5043851;28;20037;-79
2023/08/23 03:05:56;;;;;;;26.17;15.85;;;;;;;22.58;100.00;92894.72;5046128;28;20037;-79
2023/08/23 03:08:22;;;;;;;26.90;16.45;;;;;;;22.55;100.00;92887.44;5028569;28;20038;-80
2023/08/23 03:10:48;;;;;;;24.73;15.93;;;;;;;22.52;100.00;92885.47;5029062;28;20487;-79
2023/08/23 03:13:14;;;;;;;25.95;15.27;;;;;;;22.49;100.00;92893.38;5029334;28;20114;-80
2023/08/23 03:15:39;;;;;;;23.92;15.35;;;;;;;22.45;100.00;92890.66;5028952;28;20071;-80
2023/08/23 03:18:07;;;;;;;24.08;15.10;;;;;;;22.42;100.00;92884.13;5029998;28;20088;-80
2023/08/23 03:20:32;;;;;;;24.20;15.88;;;;;;;22.41;100.00;92895.91;5046443;28;20041;-79
2023/08/23 03:22:58;;;;;;;22.50;16.08;;;;;;;22.38;100.00;92885.16;5045787;28;20045;-80
2023/08/23 03:25:26;;;;;;;23.42;15.55;;;;;;;22.35;100.00;92885.88;5028949;28;20502;-81
2023/08/23 03:27:54;;;;;;;25.40;15.70;;;;;;;22.32;100.00;92881.25;5047068;28;20115;-80
2023/08/23 03:30:20;;;;;;;23.77;16.02;;;;;;;22.32;100.00;92881.25;5028916;28;20033;-80
2023/08/23 03:32:47;;;;;;;24.90;16.08;;;;;;;22.33;100.00;92880.13;5046507;28;20068;-80
2023/08/23 03:35:13;;;;;;;28.48;15.85;;;;;;;22.26;100.00;92877.31;5046583;28;20120;-80
2023/08/23 03:37:40;;;;;;;24.27;16.05;;;;;;;22.27;100.00;92882.28;5028792;28;20048;-80
2023/08/23 03:40:06;;;;;;;24.98;16.00;;;;;;;22.26;100.00;92874.63;5045946;28;20025;-80
2023/08/23 03:42:31;;;;;;;25.10;15.38;;;;;;;22.20;100.00;92876.75;5012227;28;20049;-80
2023/08/23 03:44:58;;;;;;;22.15;15.68;;;;;;;22.17;100.00;92888.13;5028167;28;20041;-80
2023/08/23 03:47:23;;;;;;;22.98;15.40;;;;;;;22.13;100.00;92880.06;5012203;28;20036;-80
2023/08/23 03:49:49;;;;;;;28.42;16.42;;;;;;;22.14;100.00;92886.94;5028608;28;20056;-80
2023/08/23 03:52:15;;;;;;;20.75;14.38;;;;;;;22.11;100.00;92892.97;5027740;28;20041;-80
2023/08/23 03:54:40;;;;;;;23.05;15.05;;;;;;;22.07;100.00;92889.47;5027592;28;20033;-80
2023/08/23 03:57:06;;;;;;;22.15;15.50;;;;;;;22.05;100.00;92878.38;5045178;28;20037;-79
2023/08/23 03:59:32;;;;;;;22.83;14.50;;;;;;;22.03;100.00;92885.94;5029662;28;20132;-79
2023/08/23 04:01:58;;;;;;;26.83;16.00;;;;;;;22.03;100.00;92881.38;5028046;28;20068;-80
2023/08/23 04:04:23;;;;;;;27.67;15.23;;;;;;;22.02;100.00;92890.50;5028533;28;20064;-80
2023/08/23 04:06:49;;;;;;;26.58;15.43;;;;;;;21.98;100.00;92883.56;5028076;28;20056;-79
2023/08/23 04:09:15;;;;;;;20.83;14.77;;;;;;;22.02;100.00;92903.03;5026958;28;20088;-80
2023/08/23 04:11:41;;;;;;;20.02;15.25;;;;;;;22.00;100.00;92897.31;5027278;28;20029;-80
2023/08/23 04:14:06;;;;;;;23.40;16.38;;;;;;;22.00;100.00;92891.97;5026149;28;20434;-80
2023/08/23 04:16:32;;;;;;;26.02;15.32;;;;;;;21.97;100.00;92888.09;5042493;28;20049;-80
2023/08/23 04:18:58;;;;;;;24.80;15.30;;;;;;;21.96;100.00;92883.88;5011418;28;20517;-80
2023/08/23 04:21:24;;;;;;;24.90;16.20;;;;;;;21.98;100.00;92891.53;5011791;28;20025;-80
2023/08/23 04:23:52;;;;;;;22.77;15.57;;;;;;;22.01;100.00;92885.50;5045872;28;20045;-79
2023/08/23 04:26:19;;;;;;;24.15;15.65;;;;;;;22.03;100.00;92892.03;5028143;28;20041;-80
2023/08/23 04:28:46;;;;;;;24.70;15.80;;;;;;;22.00;100.00;92883.97;5045733;28;20091;-80
2023/08/23 04:31:11;;;;;;;24.88;15.63;;;;;;;22.00;100.00;92892.75;5026418;28;20105;-80
2023/08/23 04:33:45;;;;;;;23.70;15.70;;;;;;;21.95;100.00;92894.88;5027162;28;20495;-80
2023/08/23 04:36:11;;;;;;;22.92;15.18;;;;;;;21.94;100.00;92886.13;5019799;28;20244;-79
2023/08/23 04:38:37;;;;;;;23.85;15.43;;;;;;;21.96;100.00;92893.78;5019239;28;20033;-79
2023/08/23 04:41:04;;;;;;;33.35;16.17;;;;;;;21.96;100.00;92883.88;5020011;28;20489;-79
2023/08/23 04:43:32;;;;;;;47.20;17.67;;;;;;;21.97;100.00;92895.31;5020336;28;20033;-79
2023/08/23 04:45:59;;;;;;;24.55;16.33;;;;;;;21.99;100.00;92887.75;5020884;28;20034;-79
2023/08/23 04:48:34;;;;;;;24.45;15.77;;;;;;;21.96;100.00;92885.78;5021136;28;20038;-79
2023/08/23 04:51:04;;;;;;;21.15;15.88;;;;;;;21.94;100.00;92883.47;5039636;28;20120;-79
2023/08/23 04:53:44;;;;;;;25.27;17.02;;;;;;;21.98;100.00;92884.31;5037616;28;20030;-79
2023/08/23 04:56:10;;;;;;;30.65;17.58;;;;;;;22.03;100.00;92893.94;5023941;28;20037;-79
2023/08/23 04:58:35;;;;;;;22.75;15.85;;;;;;;22.03;100.00;92889.38;5038938;28;20057;-79
2023/08/23 05:01:05;;;;;;;26.83;17.02;;;;;;;22.08;100.00;92891.00;5022382;28;20038;-78
2023/08/23 05:03:32;;;;;;;25.52;15.30;;;;;;;22.11;100.00;92892.97;5019736;28;20125;-79
2023/08/23 05:05:59;;;;;;;24.20;14.77;;;;;;;22.16;100.00;92890.03;5020402;28;20040;-78
2023/08/23 05:08:26;;;;;;;23.80;15.10;;;;;;;22.18;100.00;92901.13;5020794;28;20123;-79
2023/08/23 05:10:56;;;;;;;24.35;15.90;;;;;;;22.19;100.00;92892.00;5019001;28;20072;-79
2023/08/23 05:13:25;;;;;;;29.38;16.42;;;;;;;22.25;100.00;92900.53;5018551;28;20454;-79
2023/08/23 05:15:55;;;;;;;32.25;16.25;;;;;;;22.31;100.00;92893.78;5019406;28;20030;-79
2023/08/23 05:18:22;;;;;;;22.75;15.82;;;;;;;22.37;100.00;92905.72;5018568;28;20041;-79
2023/08/23 05:21:02;;;;;;;27.30;15.45;;;;;;;22.47;100.00;92900.97;5003454;28;20043;-80
2023/08/23 05:23:31;;;;;;;26.50;15.15;;;;;;;22.53;100.00;92911.00;5019234;28;20037;-79
2023/08/23 05:25:57;;;;;;;24.02;15.85;;;;;;;22.63;100.00;92909.69;5019235;28;20064;-79
2023/08/23 05:28:25;;;;;;;23.23;15.70;;;;;;;22.71;100.00;92910.59;5036552;28;20045;-79
2023/08/23 05:30:57;;;;;;;20.40;14.27;;;;;;;22.80;100.00;92911.91;5018896;28;20033;-79
2023/08/23 05:33:28;;;;;;;27.27;15.57;;;;;;;22.89;100.00;92909.03;5019669;28;20045;-79
2023/08/23 05:35:57;;;;;;;22.98;15.43;;;;;;;23.00;100.00;92909.28;5019471;28;20092;-79
2023/08/23 05:38:28;;;;;;;21.88;15.25;;;;;;;23.10;100.00;92913.25;5019014;28;20063;-79
2023/08/23 05:41:02;;;;;;;20.98;14.52;;;;;;;23.22;100.00;92913.13;5018495;28;20041;-79
2023/08/23 05:43:29;;;;;;;25.15;14.70;;;;;;;23.33;100.00;92908.72;5018864;28;20079;-79
2023/08/23 05:46:07;;;;;;;25.05;15.57;;;;;;;23.46;100.00;92907.44;5036908;28;20543;-79
2023/08/23 05:48:41;;;;;;;28.85;15.57;;;;;;;23.54;100.00;92900.28;5036660;28;20052;-79
2023/08/23 05:51:10;;;;;;;23.40;15.98;;;;;;;23.70;100.00;92908.19;5018873;28;20116;-79
2023/08/23 05:53:36;;;;;;;22.58;15.00;;;;;;;23.79;100.00;92911.41;5037192;28;20037;-79
2023/08/23 05:56:05;;;;;;;22.67;15.25;;;;;;;23.89;100.00;92916.16;5036900;28;20049;-79
2023/08/23 05:58:34;;;;;;;23.80;15.45;;;;;;;24.02;100.00;92916.72;5036260;28;20496;-79
2023/08/23 06:01:05;;;;;;;26.23;15.15;;;;;;;24.15;100.00;92917.28;5036894;28;20112;-79
2023/08/23 06:03:30;;;;;;;21.75;15.40;;;;;;;24.27;100.00;92914.41;5036437;28;20053;-79
2023/08/23 06:05:56;;;;;;;22.77;15.55;;;;;;;24.42;100.00;92918.03;5037916;28;20045;-78
2023/08/23 06:08:22;;;;;;;24.13;15.60;;;;;;;24.59;100.00;92914.09;5006941;28;20482;-80
2023/08/23 06:10:47;;;;;;;24.85;16.27;;;;;;;24.77;100.00;92919.66;5043096;28;20045;-79
2023/08/23 06:13:20;;;;;;;27.73;15.43;;;;;;;24.97;100.00;92922.94;5042000;28;20053;-81
2023/08/23 06:15:53;;;;;;;21.05;15.05;;;;;;;25.16;100.00;92923.91;5041901;28;20116;-80
2023/08/23 06:18:18;;;;;;;24.42;15.10;;;;;;;25.29;100.00;92926.00;5041604;28;20056;-80
2023/08/23 06:20:58;;;;;;;24.60;14.68;;;;;;;25.64;100.00;92918.63;5041288;28;20033;-79
2023/08/23 06:23:24;;;;;;;21.90;14.52;;;;;;;26.38;100.00;92923.03;5041021;28;20037;-80
2023/08/23 06:26:08;;;;;;;24.15;14.80;;;;;;;27.04;100.00;92917.59;5024015;28;20065;-80
2023/08/23 06:28:38;;;;;;;23.98;14.60;;;;;;;27.72;100.00;92914.28;5024927;28;20048;-80
2023/08/23 06:31:03;;;;;;;23.30;14.85;;;;;;;28.29;100.00;92922.38;5043617;28;20423;-80
2023/08/23 06:33:29;;;;;;;19.00;14.18;;;;;;;28.81;100.00;92919.94;5024531;28;20029;-79
2023/08/23 06:35:55;;;;;;;20.55;14.00;;;;;;;29.26;97.21;92930.94;5024451;28;20052;-80
2023/08/23 06:38:20;;;;;;;23.70;14.40;;;;;;;29.75;94.47;92925.66;5024763;28;20034;-80
2023/08/23 06:40:46;;;;;;;24.17;14.90;;;;;;;30.21;91.63;92929.16;5049215;28;20346;-79
2023/08/23 06:43:19;;;;;;;23.23;14.45;;;;;;;30.61;86.18;92924.16;5025923;28;20091;-81
2023/08/23 06:45:44;;;;;;;22.60;14.00;;;;;;;30.71;84.27;92926.75;5031594;28;20427;-80
2023/08/23 06:48:10;;;;;;;18.20;12.65;;;;;;;31.02;84.46;92929.50;4998291;28;20025;-80
2023/08/23 06:50:37;;;;;;;22.08;13.88;;;;;;;31.30;80.62;92920.28;5048505;28;20092;-81
2023/08/23 06:53:03;;;;;;;19.00;13.52;;;;;;;31.65;79.69;92929.09;5029078;28;20034;-81
2023/08/23 06:55:28;;;;;;;23.98;14.80;;;;;;;31.80;78.26;92918.81;5047971;28;20041;-81
2023/08/23 06:57:54;;;;;;;25.08;14.30;;;;;;;31.59;77.73;92929.94;5013011;28;20049;-81
2023/08/23 07:00:20;;;;;;;24.95;14.50;;;;;;;30.69;83.13;92931.00;5030030;28;20350;-81
2023/08/23 07:02:46;;;;;;;21.42;14.15;;;;;;;30.25;85.67;92924.50;5027418;28;20030;-81
2023/08/23 07:05:11;;;;;;;23.45;14.15;;;;;;;29.89;87.82;92932.88;5013232;28;20090;-81
2023/08/23 07:07:37;;;;;;;29.88;14.75;;;;;;;29.51;91.91;92918.47;5029298;28;20399;-82
2023/08/23 07:10:05;;;;;;;26.13;14.88;;;;;;;29.46;92.66;92919.66;5029056;28;20029;-81
2023/08/23 07:12:30;;;;;;;25.67;15.10;;;;;;;29.17;93.83;92919.81;5046306;28;20033;-81
2023/08/23 07:14:56;;;;;;;23.70;15.40;;;;;;;28.69;98.83;92925.78;5029263;28;20087;-81
2023/08/23 07:17:22;;;;;;;27.55;16.17;;;;;;;28.45;100.00;92930.78;5029937;28;20053;-80
2023/08/23 07:19:48;;;;;;;25.08;14.77;;;;;;;28.32;100.00;92924.28;5047111;28;20041;-80
2023/08/23 07:22:13;;;;;;;22.58;14.85;;;;;;;28.50;100.00;92926.19;5029296;28;20097;-80
2023/08/23 07:24:39;;;;;;;18.90;13.80;;;;;;;28.47;100.00;92927.75;5030244;28;20152;-82
2023/08/23 07:27:05;;;;;;;22.58;14.23;;;;;;;28.42;100.00;92931.56;5046325;28;20047;-81
2023/08/23 07:29:35;;;;;;;32.78;15.98;;;;;;;28.39;100.00;92926.97;5045938;28;20034;-79
2023/08/23 07:32:04;;;;;;;22.65;15.25;;;;;;;28.23;100.00;92923.91;5044472;28;20064;-79
2023/08/23 07:34:29;;;;;;;27.60;15.63;;;;;;;28.04;100.00;92925.09;5027719;28;20048;-80
2023/08/23 07:36:55;;;;;;;25.80;15.35;;;;;;;28.18;100.00;92930.44;5043907;28;20515;-81
2023/08/23 07:39:20;;;;;;;26.27;16.55;;;;;;;28.03;100.00;92921.63;5024242;28;20021;-80
2023/08/23 07:41:46;;;;;;;32.58;16.40;;;;;;;27.93;100.00;92932.41;5017080;28;20044;-80
2023/08/23 07:44:12;;;;;;;23.45;15.57;;;;;;;28.20;100.00;92930.06;5041276;28;20093;-80
2023/08/23 07:46:37;;;;;;;25.30;14.98;;;;;;;27.90;100.00;92933.94;5042754;28;20037;-80
2023/08/23 07:49:03;;;;;;;19.83;15.10;;;;;;;28.24;100.00;92931.59;5037329;28;20033;-79
2023/08/23 07:51:28;;;;;;;21.60;15.60;;;;;;;28.45;100.00;92935.41;5043409;28;20033;-80
2023/08/23 07:53:54;;;;;;;26.88;15.60;;;;;;;28.59;100.00;92934.63;5042048;28;20045;-80
2023/08/23 07:56:20;;;;;;;23.33;15.15;;;;;;;28.80;100.00;92934.59;5042604;28;20041;-81
2023/08/23 07:58:45;;;;;;;24.55;15.23;;;;;;;28.86;99.94;92932.25;5042826;28;20034;-79
2023/08/23 08:01:11;;;;;;;22.67;14.85;;;;;;;28.79;99.43;92938.41;5042095;28;20033;-79
2023/08/23 08:03:36;;;;;;;21.80;15.45;;;;;;;28.40;100.00;92931.19;5024357;28;20041;-79
2023/08/23 08:06:02;;;;;;;20.35;15.40;;;;;;;28.33;100.00;92933.91;5021219;28;20022;-80
2023/08/23 08:08:28;;;;;;;24.50;15.90;;;;;;;27.99;100.00;92930.88;5022679;28;20038;-80
2023/08/23 08:10:53;;;;;;;27.05;14.70;;;;;;;27.99;100.00;92942.38;5005460;28;20042;-80
2023/08/23 08:13:19;;;;;;;29.88;16.10;;;;;;;27.87;100.00;92934.69;5006651;28;20024;-80
2023/08/23 08:15:44;;;;;;;22.92;14.63;;;;;;;28.27;100.00;92930.06;5030795;28;20041;-80
2023/08/23 08:18:10;;;;;;;22.33;14.15;;;;;;;28.61;100.00;92929.63;5027885;28;20154;-80
2023/08/23 08:20:36;;;;;;;22.25;14.02;;;;;;;28.75;93.93;92932.28;5044010;28;20061;-80
2023/08/23 08:23:01;;;;;;;20.05;14.30;;;;;;;28.89;94.83;92933.38;5046374;28;20277;-83
2023/08/23 08:25:31;;;;;;;22.77;13.05;;;;;;;28.90;94.27;92934.94;5023064;28;20523;-83
2023/08/23 08:27:56;;;;;;;21.35;13.52;;;;;;;28.91;93.50;92939.16;5043787;28;20044;-81
2023/08/23 08:30:22;;;;;;;20.67;14.70;;;;;;;28.64;94.69;92936.91;5030369;28;20033;-80
2023/08/23 08:32:52;;;;;;;26.17;14.45;;;;;;;28.65;94.32;92933.09;5029669;28;20037;-80
2023/08/23 08:35:18;;;;;;;21.45;13.95;;;;;;;28.29;96.46;92933.13;5047767;28;20034;-80
2023/08/23 08:37:43;;;;;;;23.23;14.27;;;;;;;28.19;97.71;92932.00;5048179;28;20033;-80
2023/08/23 08:40:10;;;;;;;30.02;14.52;;;;;;;28.22;96.92;92935.84;5047275;28;20072;-80
2023/08/23 08:42:36;;;;;;;22.80;15.38;;;;;;;28.37;95.02;92940.06;5047514;28;20396;-80
2023/08/23 08:45:02;;;;;;;21.08;13.82;;;;;;;28.31;93.65;92935.44;5030060;28;20092;-80
2023/08/23 08:47:27;;;;;;;21.98;14.70;;;;;;;28.60;94.65;92930.81;5047579;28;20410;-80
2023/08/23 08:49:56;;;;;;;19.15;13.68;;;;;;;28.92;91.55;92932.63;5046576;28;20044;-79
2023/08/23 08:52:28;;;;;;;20.77;14.20;;;;;;;28.79;91.84;92941.13;5047048;28;20025;-79
2023/08/23 08:54:54;;;;;;;;;;;;;;;28.97;91.52;92940.28;5048286;28;20033;-79
2023/08/23 08:57:22;;;;;;;21.48;14.43;;;;;;;29.09;91.87;92937.19;5046975;28;19933;-80
2023/08/23 08:59:49;;;;;;;22.25;14.55;;;;;;;29.32;90.03;92925.91;5047330;28;20033;-80
2023/08/23 09:02:25;;;;;;;22.08;14.50;;;;;;;29.59;89.52;92928.81;5029254;28;20148;-80
2023/08/23 09:04:51;;;;;;;18.30;13.98;;;;;;;29.68;87.93;92933.81;5028862;28;20040;-80
2023/08/23 09:07:17;;;;;;;20.83;14.38;;;;;;;29.26;90.62;92940.97;5046274;28;20049;-80
2023/08/23 09:09:43;;;;;;;23.88;14.68;;;;;;;29.38;91.45;92934.34;5046247;28;20040;-78
2023/08/23 09:12:10;;;;;;;20.73;13.77;;;;;;;29.54;89.54;92931.16;5029518;28;20093;-81
2023/08/23 09:14:37;;;;;;;23.70;14.32;;;;;;;29.53;89.76;92938.50;5046290;28;20038;-81
2023/08/23 09:17:10;;;;;;;24.77;14.52;;;;;;;29.57;89.76;92936.53;5046071;28;20053;-81
2023/08/23 09:19:40;;;;;;;25.38;13.70;;;;;;;29.42;88.49;92927.75;5044631;28;20037;-80
2023/08/23 09:22:05;;;;;;;19.20;14.38;;;;;;;29.32;90.76;92930.50;5027945;28;20034;-80
2023/08/23 09:24:34;;;;;;;20.85;14.02;;;;;;;29.05;91.52;92929.09;5022939;28;20030;-80
2023/08/23 09:27:00;;;;;;;24.98;13.95;;;;;;;29.04;90.10;92929.47;5018865;28;20114;-80
2023/08/23 09:29:26;;;;;;;20.50;14.07;;;;;;;29.26;90.62;92930.19;5045383;28;20587;-80
2023/08/23 09:31:52;;;;;;;18.58;13.50;;;;;;;29.39;87.88;92925.09;5044996;28;20037;-80
2023/08/23 09:34:17;;;;;;;21.15;14.82;;;;;;;29.36;87.08;92925.88;5029001;28;20498;-80
2023/08/23 09:36:43;;;;;;;19.50;13.98;;;;;;;29.29;90.26;92936.69;5012128;28;20049;-80
2023/08/23 09:39:12;;;;;;;18.90;13.48;;;;;;;29.33;87.79;92926.69;5011963;28;20053;-80
2023/08/23 09:41:42;;;;;;;17.80;13.00;;;;;;;29.47;87.83;92931.97;5046777;28;20033;-79
2023/08/23 09:44:08;;;;;;;23.80;13.73;;;;;;;29.29;84.25;92931.31;5045462;28;20041;-80
2023/08/23 09:46:36;;;;;;;16.65;12.60;;;;;;;29.23;84.89;92930.97;5046328;28;20037;-80
2023/08/23 09:49:07;;;;;;;19.58;13.07;;;;;;;29.29;86.70;92931.31;5045995;28;20056;-80
2023/08/23 09:51:47;;;;;;;23.08;14.30;;;;;;;29.44;83.99;92932.78;5045548;28;20487;-80
2023/08/23 09:54:20;;;;;;;22.23;13.95;;;;;;;29.57;84.54;92925.75;5046068;28;20037;-80
2023/08/23 09:56:47;;;;;;;17.88;12.57;;;;;;;29.53;83.12;92921.56;5045417;28;20037;-80
2023/08/23 09:59:12;;;;;;;20.15;13.50;;;;;;;29.64;83.71;92935.72;5045547;28;20056;-80
2023/08/23 10:01:39;;;;;;;25.77;13.82;;;;;;;29.83;81.95;92929.06;5044979;28;20525;-80
2023/08/23 10:04:08;;;;;;;18.60;13.25;;;;;;;30.14;82.48;92929.22;5044216;28;20495;-80
2023/08/23 10:06:35;;;;;;;20.33;13.50;;;;;;;30.38;80.42;92930.19;5046085;28;20048;-80
2023/08/23 10:09:03;;;;;;;19.65;13.43;;;;;;;30.45;78.41;92922.00;5026739;28;20041;-80
2023/08/23 10:11:44;;;;;;;20.17;13.07;;;;;;;30.29;79.71;92917.16;5044720;28;20045;-81
2023/08/23 10:14:11;;;;;;;20.95;13.75;;;;;;;30.43;78.83;92925.09;5025403;28;20029;-80
2023/08/23 10:16:47;;;;;;;18.00;12.70;;;;;;;30.52;78.24;92921.94;5044295;28;20117;-80
2023/08/23 10:19:13;;;;;;;18.92;13.18;;;;;;;30.34;78.27;92922.13;5045166;28;20435;-80
2023/08/23 10:21:40;;;;;;;18.98;13.35;;;;;;;30.25;78.40;92924.50;5043853;28;20029;-80
2023/08/23 10:24:08;;;;;;;20.58;13.10;;;;;;;30.30;78.64;92908.63;5025862;28;20068;-80
2023/08/23 10:26:46;;;;;;;20.00;12.80;;;;;;;30.15;80.29;92918.03;5026761;28;20479;-80
2023/08/23 10:29:11;;;;;;;21.17;13.35;;;;;;;30.57;77.74;92907.22;5045147;28;20025;-80
2023/08/23 10:31:52;;;;;;;21.75;14.40;;;;;;;30.39;80.02;92910.88;5026768;28;20045;-80
2023/08/23 10:34:23;;;;;;;20.95;13.75;;;;;;;30.58;76.98;92903.34;5043820;28;20038;-80
2023/08/23 10:36:53;;;;;;;18.23;12.27;;;;;;;30.69;76.71;92893.97;5043969;28;20041;-81
2023/08/23 10:39:26;;;;;;;19.27;12.38;;;;;;;30.53;76.47;92898.38;5043759;28;20067;-80
2023/08/23 10:41:54;;;;;;;16.42;12.77;;;;;;;30.64;75.56;92891.69;5044399;28;20029;-80
2023/08/23 10:44:20;;;;;;;18.90;13.63;;;;;;;30.54;75.20;92883.72;5044290;28;20076;-80
2023/08/23 10:46:54;;;;;;;21.42;13.20;;;;;;;30.58;76.35;92890.63;5026138;28;20053;-80
2023/08/23 10:49:27;;;;;;;21.83;13.32;;;;;;;30.78;76.71;92881.91;5042877;28;20040;-80
2023/08/23 10:51:53;;;;;;;17.80;12.40;;;;;;;30.93;74.28;92888.69;5025545;28;20037;-81
2023/08/23 10:54:18;;;;;;;20.80;13.48;;;;;;;31.09;74.63;92886.16;5043807;28;20034;-80
2023/08/23 10:56:46;;;;;;;24.05;13.27;;;;;;;31.26;72.62;92880.94;5025561;28;20038;-80
2023/08/23 10:59:12;;;;;;;20.80;13.77;;;;;;;31.32;73.54;92874.66;5043417;28;20026;-80
2023/08/23 11:01:52;;;;;;;18.15;12.48;;;;;;;31.00;72.52;92874.31;5043437;28;20037;-80
2023/08/23 11:04:31;;;;;;;18.55;13.10;;;;;;;31.10;71.97;92876.13;5044241;28;20096;-79
2023/08/23 11:06:58;;;;;;;18.80;12.40;;;;;;;30.88;72.39;92873.69;5044446;28;20037;-79
2023/08/23 11:09:25;;;;;;;18.27;12.73;;;;;;;31.21;71.78;92868.66;5043734;28;20060;-79
2023/08/23 11:11:52;;;;;;;16.27;11.35;;;;;;;31.07;69.68;92869.59;5042949;28;20039;-80
2023/08/23 11:14:17;;;;;;;16.33;12.80;;;;;;;31.20;69.00;92861.69;5042390;28;20040;-80